Time;durP1;ratioP1;P1;durP2;ratioP2;P2;SDS_P1;SDS_P2;PMS_P1;PMS_P2;Temp;Humidity;BMP_temperature;BMP_pressure;BME280_temperature;BME280_humidity;BME280_pressure;Samples;Min_cycle;Max_cycle;Signal;HPM_P1;HPM_P2
2021/01/21 00:02:00;;;;;;;3.07;2.33;;;7.50;99.90;;;;;;468159;254;28111;-72
2021/01/21 00:04:01;;;;;;;2.47;1.97;;;7.60;99.90;;;;;;468179;254;27691;-70
2021/01/21 00:06:03;;;;;;;3.97;2.57;;;7.60;99.90;;;;;;468158;254;28176;-72
2021/01/21 00:08:04;;;;;;;2.50;2.10;;;7.60;99.90;;;;;;468239;254;27993;-71
2021/01/21 00:10:05;;;;;;;2.40;2.13;;;7.70;99.90;;;;;;468165;254;28100;-71
2021/01/21 00:12:06;;;;;;;2.73;2.00;;;7.70;99.90;;;;;;468194;253;28112;-71
2021/01/21 00:14:08;;;;;;;3.17;2.07;;;7.70;99.90;;;;;;468148;253;28079;-70
2021/01/21 00:16:09;;;;;;;3.90;2.30;;;7.70;99.90;;;;;;468176;253;28079;-71
2021/01/21 00:18:10;;;;;;;3.53;2.40;;;7.80;99.90;;;;;;468198;253;28229;-71
2021/01/21 00:20:11;;;;;;;5.23;2.13;;;7.70;99.90;;;;;;468097;253;28590;-72
2021/01/21 00:22:13;;;;;;;5.37;2.27;;;7.80;99.90;;;;;;468132;253;28429;-71
2021/01/21 00:24:17;;;;;;;2.33;2.13;;;7.90;99.90;;;;;;468200;253;28519;-71
2021/01/21 00:26:18;;;;;;;4.13;2.00;;;7.90;99.90;;;;;;468105;253;29168;-71
2021/01/21 00:28:19;;;;;;;2.50;2.03;;;7.80;99.90;;;;;;468275;253;28880;-71
2021/01/21 00:30:21;;;;;;;9.10;1.93;;;7.90;99.90;;;;;;468231;253;27953;-71
2021/01/21 00:32:22;;;;;;;2.47;1.97;;;7.80;99.90;;;;;;468241;253;27704;-71
2021/01/21 00:34:24;;;;;;;3.80;1.97;;;7.90;99.90;;;;;;468176;253;28140;-70
2021/01/21 00:36:24;;;;;;;2.07;1.87;;;7.80;99.90;;;;;;468230;251;27977;-72
2021/01/21 00:38:26;;;;;;;2.00;1.90;;;7.80;99.90;;;;;;468296;253;28212;-71
2021/01/21 00:40:27;;;;;;;2.03;1.80;;;7.80;99.90;;;;;;468205;253;27579;-70
2021/01/21 00:42:28;;;;;;;3.87;2.30;;;7.80;99.90;;;;;;468232;253;27588;-71
2021/01/21 00:44:29;;;;;;;4.67;2.00;;;7.80;99.90;;;;;;468261;253;28045;-70
2021/01/21 00:46:31;;;;;;;3.23;2.10;;;7.80;99.90;;;;;;468289;253;28114;-71
2021/01/21 00:48:32;;;;;;;1.90;1.80;;;7.80;99.90;;;;;;468275;253;27920;-70
2021/01/21 00:50:33;;;;;;;2.13;1.90;;;7.80;99.90;;;;;;468222;253;27722;-70
2021/01/21 00:52:34;;;;;;;3.77;2.13;;;7.80;99.90;;;;;;468238;253;28097;-72
2021/01/21 00:54:36;;;;;;;4.63;2.20;;;7.80;99.90;;;;;;468293;253;28073;-71
2021/01/21 00:56:37;;;;;;;2.70;2.03;;;7.80;99.90;;;;;;468361;253;28012;-71
2021/01/21 00:58:38;;;;;;;2.80;2.10;;;7.80;99.90;;;;;;468408;253;28503;-71
2021/01/21 01:00:39;;;;;;;6.23;2.10;;;7.80;99.90;;;;;;468392;253;28527;-71
2021/01/21 01:02:41;;;;;;;3.40;1.83;;;7.80;99.90;;;;;;468443;253;28137;-70
2021/01/21 01:04:42;;;;;;;3.33;2.03;;;7.80;99.90;;;;;;468461;253;28701;-70
2021/01/21 01:06:43;;;;;;;4.33;2.13;;;7.80;99.90;;;;;;468450;253;28616;-72
2021/01/21 01:08:44;;;;;;;3.33;2.43;;;7.70;99.90;;;;;;468420;253;27812;-70
2021/01/21 01:10:46;;;;;;;2.33;2.13;;;7.80;99.90;;;;;;468318;253;28116;-71
2021/01/21 01:12:47;;;;;;;2.30;2.10;;;7.80;99.90;;;;;;468245;253;28194;-70
2021/01/21 01:14:48;;;;;;;6.50;2.00;;;7.80;99.90;;;;;;468289;253;28139;-70
2021/01/21 01:16:49;;;;;;;2.80;1.97;;;7.80;99.90;;;;;;468289;253;28034;-71
2021/01/21 01:18:51;;;;;;;2.00;1.70;;;7.80;99.90;;;;;;468255;253;28058;-71
2021/01/21 01:20:52;;;;;;;5.00;2.03;;;7.90;99.90;;;;;;468256;253;28152;-71
2021/01/21 01:22:53;;;;;;;3.07;1.90;;;7.90;99.90;;;;;;468402;253;27863;-73
2021/01/21 01:24:54;;;;;;;5.30;2.20;;;8.00;99.90;;;;;;468366;253;28076;-70
2021/01/21 01:26:56;;;;;;;3.80;2.30;;;8.10;99.90;;;;;;468340;253;27790;-71
2021/01/21 01:28:57;;;;;;;2.80;1.70;;;8.10;99.90;;;;;;468306;253;28096;-70
2021/01/21 01:30:58;;;;;;;2.73;2.00;;;8.10;99.90;;;;;;468226;253;28010;-71
2021/01/21 01:33:00;;;;;;;2.23;1.70;;;8.30;99.90;;;;;;468251;253;28144;-72
2021/01/21 01:35:01;;;;;;;2.17;1.93;;;8.30;99.90;;;;;;468234;253;28047;-70
2021/01/21 01:37:02;;;;;;;2.40;2.20;;;8.40;99.90;;;;;;468243;253;28602;-71
2021/01/21 01:39:03;;;;;;;3.17;1.60;;;8.50;99.90;;;;;;468252;253;28630;-71
2021/01/21 01:41:04;;;;;;;1.93;1.80;;;8.50;99.90;;;;;;468178;253;28553;-70
2021/01/21 01:43:06;;;;;;;1.63;1.53;;;8.60;99.90;;;;;;468221;253;28606;-71
2021/01/21 01:45:07;;;;;;;3.13;1.50;;;8.60;99.90;;;;;;468193;253;29005;-70
2021/01/21 01:47:08;;;;;;;3.10;1.77;;;8.50;99.90;;;;;;468242;253;27967;-71
2021/01/21 01:49:09;;;;;;;2.80;2.00;;;8.60;99.90;;;;;;468065;254;28171;-72
2021/01/21 01:51:11;;;;;;;4.17;1.73;;;8.60;99.70;;;;;;468243;253;28305;-72
2021/01/21 01:53:12;;;;;;;1.90;1.60;;;8.60;99.50;;;;;;468235;253;28111;-71
2021/01/21 01:55:13;;;;;;;2.13;1.67;;;8.80;98.70;;;;;;468196;253;27802;-71
2021/01/21 01:57:14;;;;;;;2.50;1.60;;;8.90;98.90;;;;;;468260;253;28073;-71
2021/01/21 01:59:16;;;;;;;1.50;1.40;;;8.80;98.80;;;;;;468265;253;27791;-72
2021/01/21 02:01:17;;;;;;;4.50;1.80;;;8.80;99.10;;;;;;468238;253;28178;-71
2021/01/21 02:03:18;;;;;;;2.40;2.07;;;8.90;98.70;;;;;;468224;253;27602;-70
2021/01/21 02:05:19;;;;;;;1.60;1.50;;;8.80;98.70;;;;;;468237;253;28081;-71
2021/01/21 02:07:21;;;;;;;3.33;1.70;;;8.80;98.80;;;;;;468294;253;28072;-70
2021/01/21 02:09:22;;;;;;;2.70;1.30;;;8.80;98.80;;;;;;468297;253;28236;-70
2021/01/21 02:11:23;;;;;;;2.33;1.57;;;8.80;98.10;;;;;;468322;253;28050;-72
2021/01/21 02:13:24;;;;;;;1.67;1.23;;;9.00;98.10;;;;;;468292;253;28088;-71
2021/01/21 02:15:26;;;;;;;1.90;1.50;;;9.00;97.90;;;;;;468257;253;28478;-72
2021/01/21 02:17:27;;;;;;;2.37;1.60;;;8.90;97.70;;;;;;468244;253;28544;-71
2021/01/21 02:19:28;;;;;;;2.40;1.67;;;8.90;97.90;;;;;;468256;253;28626;-70
2021/01/21 02:21:29;;;;;;;1.90;1.50;;;8.90;97.80;;;;;;468201;253;28371;-71
2021/01/21 02:23:31;;;;;;;1.20;1.20;;;9.00;97.50;;;;;;468241;253;28707;-71
2021/01/21 02:25:32;;;;;;;2.00;1.60;;;8.90;97.40;;;;;;468266;253;28559;-72
2021/01/21 02:27:33;;;;;;;2.40;1.47;;;8.90;97.30;;;;;;468258;253;28037;-70
2021/01/21 02:29:34;;;;;;;2.73;1.50;;;8.90;97.60;;;;;;468258;253;28112;-71
2021/01/21 02:31:36;;;;;;;5.13;1.63;;;8.90;97.50;;;;;;468204;253;28112;-70
2021/01/21 02:33:37;;;;;;;1.40;1.30;;;8.80;97.90;;;;;;468258;253;28332;-70
2021/01/21 02:35:38;;;;;;;3.10;1.50;;;8.70;98.20;;;;;;468325;253;27938;-72
2021/01/21 02:37:39;;;;;;;1.47;1.23;;;8.80;98.00;;;;;;468351;253;28109;-70
2021/01/21 02:39:41;;;;;;;2.30;1.50;;;8.90;97.70;;;;;;468334;253;27740;-70
2021/01/21 02:41:42;;;;;;;1.60;1.40;;;8.80;97.60;;;;;;468269;253;28088;-70
2021/01/21 02:43:43;;;;;;;3.60;2.03;;;8.80;97.90;;;;;;468251;253;28177;-71
2021/01/21 02:45:44;;;;;;;2.50;1.70;;;8.80;97.60;;;;;;468274;253;28147;-73
2021/01/21 02:47:46;;;;;;;2.70;1.60;;;8.90;97.40;;;;;;468232;253;27889;-71
2021/01/21 02:49:47;;;;;;;3.07;1.50;;;8.90;97.60;;;;;;468246;253;28171;-70
2021/01/21 02:51:48;;;;;;;2.13;1.50;;;9.00;97.50;;;;;;468249;253;27728;-72
2021/01/21 02:53:49;;;;;;;4.10;1.50;;;9.00;97.50;;;;;;468286;253;28538;-70
2021/01/21 02:55:51;;;;;;;1.50;1.40;;;8.90;97.50;;;;;;468291;253;28703;-71
2021/01/21 02:57:52;;;;;;;3.23;1.40;;;8.90;97.70;;;;;;468352;253;28524;-71
2021/01/21 02:59:53;;;;;;;4.60;1.83;;;8.90;97.70;;;;;;468366;253;28034;-71
2021/01/21 03:01:54;;;;;;;4.00;1.60;;;9.00;97.80;;;;;;468279;253;28524;-72
2021/01/21 03:03:56;;;;;;;2.10;1.57;;;9.00;97.80;;;;;;468252;253;28068;-71
2021/01/21 03:05:57;;;;;;;3.63;1.90;;;9.10;97.70;;;;;;468243;253;28251;-71
2021/01/21 03:07:58;;;;;;;1.50;1.40;;;9.10;97.60;;;;;;468205;254;27840;-71
2021/01/21 03:09:59;;;;;;;2.03;1.50;;;9.20;97.50;;;;;;468204;253;28238;-71
2021/01/21 03:12:01;;;;;;;1.87;1.43;;;9.20;97.60;;;;;;468187;253;28120;-71
2021/01/21 03:14:02;;;;;;;2.40;1.60;;;9.20;97.70;;;;;;468211;253;27719;-70
2021/01/21 03:16:03;;;;;;;2.63;1.40;;;9.30;97.60;;;;;;468219;253;27678;-70
2021/01/21 03:18:04;;;;;;;1.87;1.30;;;9.30;97.50;;;;;;468210;253;27705;-71
2021/01/21 03:20:06;;;;;;;1.47;1.37;;;9.30;97.60;;;;;;468201;253;27713;-71
2021/01/21 03:22:07;;;;;;;2.40;1.33;;;9.40;97.50;;;;;;468236;253;27967;-71
2021/01/21 03:24:08;;;;;;;6.03;1.67;;;9.40;97.80;;;;;;468225;253;27967;-71
2021/01/21 03:26:09;;;;;;;1.43;1.33;;;9.50;97.70;;;;;;468224;253;28940;-70
2021/01/21 03:28:11;;;;;;;1.30;1.20;;;9.50;97.70;;;;;;468261;253;28510;-72
2021/01/21 03:30:12;;;;;;;3.13;1.77;;;9.60;97.80;;;;;;468174;253;28446;-71
2021/01/21 03:32:13;;;;;;;1.40;1.30;;;9.50;98.10;;;;;;468242;253;28583;-71
2021/01/21 03:34:14;;;;;;;4.60;1.30;;;9.50;98.20;;;;;;468247;253;28557;-71
2021/01/21 03:36:16;;;;;;;2.40;1.20;;;9.50;98.00;;;;;;468241;253;27681;-71
2021/01/21 03:38:17;;;;;;;2.67;1.67;;;9.60;98.20;;;;;;468226;253;28050;-72
2021/01/21 03:40:18;;;;;;;2.50;1.60;;;9.70;98.00;;;;;;468147;253;28208;-72
2021/01/21 03:42:19;;;;;;;3.90;1.53;;;9.70;98.20;;;;;;468249;253;28090;-71
2021/01/21 03:44:21;;;;;;;1.40;1.30;;;9.70;98.30;;;;;;468219;253;28209;-71
2021/01/21 03:46:22;;;;;;;1.30;1.20;;;9.70;98.50;;;;;;468250;253;27891;-71
2021/01/21 03:48:23;;;;;;;1.90;1.50;;;9.70;98.70;;;;;;468224;253;27698;-71
2021/01/21 03:50:24;;;;;;;1.23;1.13;;;9.70;98.60;;;;;;468108;253;28166;-71
2021/01/21 03:52:26;;;;;;;1.37;1.27;;;9.70;98.80;;;;;;468177;253;28228;-70
2021/01/21 03:54:27;;;;;;;1.37;1.27;;;9.70;99.00;;;;;;468281;253;28008;-72
2021/01/21 03:56:28;;;;;;;1.63;1.40;;;9.60;98.90;;;;;;468352;253;28187;-71
2021/01/21 03:58:29;;;;;;;2.80;1.53;;;9.70;99.00;;;;;;468359;253;28075;-71
2021/01/21 04:00:31;;;;;;;2.90;1.80;;;9.70;99.20;;;;;;468280;253;28495;-71
2021/01/21 04:02:32;;;;;;;2.23;1.70;;;9.70;99.40;;;;;;468432;253;28493;-71
2021/01/21 04:04:33;;;;;;;3.03;1.40;;;9.70;99.90;;;;;;468434;253;28557;-73
2021/01/21 04:06:34;;;;;;;1.83;1.70;;;9.60;99.90;;;;;;468415;253;28429;-71
2021/01/21 04:08:36;;;;;;;4.23;1.30;;;9.60;99.90;;;;;;468423;253;28573;-71
2021/01/21 04:10:37;;;;;;;1.20;1.10;;;9.50;99.90;;;;;;468330;253;28053;-71
2021/01/21 04:12:38;;;;;;;2.40;1.50;;;9.50;99.90;;;;;;468409;253;28214;-71
2021/01/21 04:14:39;;;;;;;3.23;1.53;;;9.40;99.90;;;;;;468406;253;28080;-72
2021/01/21 04:16:41;;;;;;;3.40;1.43;;;9.40;99.90;;;;;;468364;253;28031;-71
2021/01/21 04:18:42;;;;;;;1.80;1.50;;;9.40;99.90;;;;;;468365;253;27952;-71
2021/01/21 04:20:43;;;;;;;2.27;1.10;;;9.40;99.90;;;;;;468210;253;27935;-70
2021/01/21 04:22:44;;;;;;;1.70;1.60;;;9.40;99.90;;;;;;468182;253;27726;-71
2021/01/21 04:24:46;;;;;;;2.23;1.67;;;9.30;99.90;;;;;;468321;253;28221;-72
2021/01/21 04:26:47;;;;;;;1.60;1.30;;;9.40;99.90;;;;;;468329;253;28035;-71
2021/01/21 04:28:48;;;;;;;3.80;1.50;;;9.40;99.90;;;;;;468358;250;28206;-71
2021/01/21 04:30:49;;;;;;;3.10;1.40;;;9.30;99.90;;;;;;468288;253;28194;-72
2021/01/21 04:32:51;;;;;;;3.90;1.30;;;9.40;99.90;;;;;;468294;253;28249;-71
2021/01/21 04:34:52;;;;;;;1.67;1.20;;;9.40;99.90;;;;;;468294;253;27940;-71
2021/01/21 04:36:53;;;;;;;4.93;1.50;;;9.50;99.90;;;;;;468274;253;27546;-71
2021/01/21 04:38:54;;;;;;;2.60;1.30;;;9.50;99.90;;;;;;468268;253;28515;-71
2021/01/21 04:40:56;;;;;;;1.53;1.30;;;9.50;99.90;;;;;;468201;253;28569;-72
2021/01/21 04:42:57;;;;;;;1.87;1.30;;;9.50;99.90;;;;;;468260;253;28529;-71
2021/01/21 04:44:58;;;;;;;2.50;1.47;;;9.50;99.90;;;;;;468235;253;28621;-71
2021/01/21 04:46:59;;;;;;;1.70;1.10;;;9.40;99.90;;;;;;468196;253;28378;-71
2021/01/21 04:49:01;;;;;;;2.60;1.13;;;9.50;99.90;;;;;;468234;253;28683;-71
2021/01/21 04:51:02;;;;;;;2.10;1.40;;;9.40;99.90;;;;;;468205;253;27963;-72
2021/01/21 04:53:03;;;;;;;1.40;1.30;;;9.50;99.90;;;;;;468236;253;28097;-72
2021/01/21 04:55:04;;;;;;;4.33;1.40;;;9.50;99.90;;;;;;468214;253;27992;-71
2021/01/21 04:57:06;;;;;;;2.50;1.20;;;9.50;99.90;;;;;;468228;253;28206;-70
2021/01/21 04:59:07;;;;;;;2.03;1.40;;;9.60;99.90;;;;;;468272;253;28099;-70
2021/01/21 05:01:08;;;;;;;2.20;1.37;;;9.60;99.90;;;;;;468201;253;27969;-71
2021/01/21 05:03:09;;;;;;;2.77;1.40;;;9.50;99.90;;;;;;468259;253;28198;-73
2021/01/21 05:05:11;;;;;;;2.90;1.40;;;9.50;99.90;;;;;;468241;253;27731;-71
2021/01/21 05:07:12;;;;;;;2.13;1.87;;;9.60;99.90;;;;;;468321;254;28329;-72
2021/01/21 05:09:13;;;;;;;1.93;1.40;;;9.60;99.90;;;;;;468255;253;27645;-71
2021/01/21 05:11:14;;;;;;;2.20;1.10;;;9.60;99.90;;;;;;468207;253;28146;-72
2021/01/21 05:13:16;;;;;;;2.30;1.40;;;9.70;99.90;;;;;;468272;253;27728;-72
2021/01/21 05:15:17;;;;;;;1.47;1.37;;;9.60;99.90;;;;;;468355;253;28037;-71
2021/01/21 05:17:18;;;;;;;1.90;1.30;;;9.60;99.90;;;;;;468350;253;28458;-72
2021/01/21 05:19:19;;;;;;;5.80;1.80;;;9.60;99.90;;;;;;468225;253;28284;-71
2021/01/21 05:21:21;;;;;;;2.10;1.60;;;9.70;99.90;;;;;;468186;253;28647;-72
2021/01/21 05:23:22;;;;;;;1.60;1.50;;;9.70;99.90;;;;;;468232;253;28618;-72
2021/01/21 05:25:23;;;;;;;1.60;1.50;;;9.70;99.90;;;;;;468282;253;28428;-71
2021/01/21 05:27:24;;;;;;;1.60;1.50;;;9.70;99.90;;;;;;468253;253;28100;-72
2021/01/21 05:29:26;;;;;;;2.17;1.97;;;9.60;99.90;;;;;;468257;253;27994;-71
2021/01/21 05:31:27;;;;;;;1.90;1.30;;;9.70;99.90;;;;;;468213;253;28081;-72
2021/01/21 05:33:28;;;;;;;2.10;1.47;;;9.70;99.90;;;;;;468401;253;28055;-73
2021/01/21 05:35:29;;;;;;;3.70;1.50;;;9.60;99.90;;;;;;468425;253;28060;-71
2021/01/21 05:37:31;;;;;;;3.00;1.40;;;9.60;99.90;;;;;;468415;253;28220;-72
2021/01/21 05:39:32;;;;;;;1.27;1.10;;;9.70;99.90;;;;;;468407;253;28049;-72
2021/01/21 05:41:33;;;;;;;3.03;1.30;;;9.70;99.90;;;;;;468365;253;27986;-71
2021/01/21 05:43:34;;;;;;;2.23;1.50;;;9.70;99.90;;;;;;468352;253;28118;-73
2021/01/21 05:45:36;;;;;;;2.07;1.60;;;9.70;99.90;;;;;;468328;253;28122;-71
2021/01/21 05:47:37;;;;;;;1.50;1.20;;;9.70;99.90;;;;;;468253;253;28477;-71
2021/01/21 05:49:38;;;;;;;1.30;1.20;;;9.70;99.90;;;;;;468242;253;27927;-71
2021/01/21 05:51:39;;;;;;;1.30;1.20;;;9.80;99.90;;;;;;468221;253;27987;-72
2021/01/21 05:53:41;;;;;;;6.47;1.50;;;9.80;99.90;;;;;;468215;253;28239;-72
2021/01/21 05:55:42;;;;;;;1.23;1.13;;;9.80;99.90;;;;;;468256;253;28486;-71
2021/01/21 05:57:43;;;;;;;1.40;1.30;;;9.80;99.90;;;;;;468260;253;28661;-72
2021/01/21 05:59:44;;;;;;;2.43;2.00;;;9.80;99.90;;;;;;468257;253;28525;-71
2021/01/21 06:01:46;;;;;;;1.30;1.20;;;9.80;99.90;;;;;;468196;253;28403;-71
2021/01/21 06:03:47;;;;;;;2.00;1.60;;;9.80;99.90;;;;;;468232;253;28105;-72
2021/01/21 06:05:48;;;;;;;1.30;1.20;;;9.80;99.90;;;;;;468271;253;28064;-71
2021/01/21 06:07:49;;;;;;;2.77;1.40;;;9.80;99.90;;;;;;468316;253;28537;-73
2021/01/21 06:09:51;;;;;;;2.80;1.20;;;9.80;99.90;;;;;;468373;253;28066;-72
2021/01/21 06:11:52;;;;;;;1.47;1.33;;;9.80;99.90;;;;;;468301;253;28134;-71
2021/01/21 06:13:53;;;;;;;1.63;1.40;;;9.80;99.90;;;;;;468295;253;28606;-71
2021/01/21 06:15:54;;;;;;;2.00;1.20;;;9.80;99.90;;;;;;468293;253;27907;-71
2021/01/21 06:17:56;;;;;;;1.23;1.23;;;9.80;99.90;;;;;;468314;253;28159;-72
2021/01/21 06:19:57;;;;;;;2.00;1.40;;;9.80;99.90;;;;;;468254;250;28195;-73
2021/01/21 06:21:58;;;;;;;2.73;1.03;;;9.90;99.90;;;;;;468187;249;28083;-72
2021/01/21 06:23:59;;;;;;;2.23;1.53;;;9.90;99.90;;;;;;468228;253;28082;-71
2021/01/21 06:26:01;;;;;;;1.57;1.30;;;9.90;99.90;;;;;;468218;253;28099;-71
2021/01/21 06:28:02;;;;;;;3.10;1.40;;;9.80;99.90;;;;;;468235;253;27837;-72
2021/01/21 06:30:03;;;;;;;2.70;1.17;;;9.80;99.90;;;;;;468146;253;27942;-72
2021/01/21 06:32:04;;;;;;;2.07;1.50;;;9.70;99.90;;;;;;468331;253;28170;-72
2021/01/21 06:34:06;;;;;;;1.47;1.37;;;9.60;99.90;;;;;;468237;253;28573;-72
2021/01/21 06:36:07;;;;;;;1.63;1.37;;;9.60;99.90;;;;;;468291;253;28812;-73
2021/01/21 06:38:08;;;;;;;1.67;1.57;;;9.50;99.90;;;;;;468264;254;28597;-72
2021/01/21 06:40:09;;;;;;;1.67;1.30;;;9.50;99.90;;;;;;468227;253;28625;-72
2021/01/21 06:42:11;;;;;;;2.20;1.40;;;9.50;99.90;;;;;;468244;253;28659;-71
2021/01/21 06:44:12;;;;;;;1.80;1.50;;;9.50;99.90;;;;;;468203;253;28089;-71
2021/01/21 06:46:13;;;;;;;1.63;1.53;;;9.50;99.90;;;;;;468260;253;28051;-73
2021/01/21 06:48:14;;;;;;;1.70;1.50;;;9.50;99.90;;;;;;468261;253;28093;-71
2021/01/21 06:50:16;;;;;;;1.67;1.57;;;9.40;99.90;;;;;;468213;253;27722;-71
2021/01/21 06:52:17;;;;;;;2.77;2.30;;;9.50;99.90;;;;;;468223;253;27953;-72
2021/01/21 06:54:18;;;;;;;2.50;1.50;;;9.40;99.90;;;;;;468269;253;28081;-71
2021/01/21 06:56:19;;;;;;;1.53;1.43;;;9.50;99.90;;;;;;468306;253;28543;-72
2021/01/21 06:58:21;;;;;;;4.07;1.80;;;9.50;99.90;;;;;;468298;253;27689;-71
2021/01/21 07:00:22;;;;;;;1.50;1.40;;;9.50;99.90;;;;;;468287;253;28049;-72
2021/01/21 07:02:23;;;;;;;1.70;1.60;;;9.40;99.90;;;;;;468424;253;28057;-72
2021/01/21 07:04:25;;;;;;;1.57;1.47;;;9.40;99.90;;;;;;468449;253;28143;-72
2021/01/21 07:06:25;;;;;;;1.20;1.10;;;9.40;99.90;;;;;;468398;253;28227;-72
2021/01/21 07:08:27;;;;;;;1.50;1.30;;;9.40;99.90;;;;;;468293;253;27970;-71
2021/01/21 07:10:28;;;;;;;2.60;1.50;;;9.40;99.90;;;;;;468228;253;28146;-72
2021/01/21 07:12:29;;;;;;;1.30;1.20;;;9.50;99.90;;;;;;468275;253;28618;-72
2021/01/21 07:14:30;;;;;;;1.20;1.10;;;9.40;99.90;;;;;;468230;253;28157;-72
2021/01/21 07:16:32;;;;;;;2.00;1.53;;;9.40;99.90;;;;;;468278;253;28512;-73
2021/01/21 07:18:33;;;;;;;1.50;1.40;;;9.30;99.90;;;;;;468300;253;28562;-71
2021/01/21 07:20:34;;;;;;;1.30;1.20;;;9.30;99.90;;;;;;468235;253;28612;-72
2021/01/21 07:22:35;;;;;;;1.73;1.40;;;9.40;99.90;;;;;;468242;253;28661;-72
2021/01/21 07:24:37;;;;;;;1.60;1.50;;;9.40;99.90;;;;;;468251;253;28159;-71
2021/01/21 07:26:38;;;;;;;1.20;1.20;;;9.40;99.90;;;;;;468281;253;27956;-73
2021/01/21 07:28:39;;;;;;;1.77;1.10;;;9.40;99.90;;;;;;468256;253;27765;-71
2021/01/21 07:30:40;;;;;;;1.20;1.10;;;9.40;99.90;;;;;;468212;253;27939;-71
2021/01/21 07:32:42;;;;;;;1.33;1.23;;;9.50;99.90;;;;;;468212;254;28063;-72
2021/01/21 07:34:43;;;;;;;1.40;1.30;;;9.50;99.90;;;;;;468202;253;28344;-71
2021/01/21 07:36:44;;;;;;;1.40;1.30;;;9.50;99.90;;;;;;468232;253;28055;-72
2021/01/21 07:38:45;;;;;;;2.60;1.33;;;9.60;99.90;;;;;;468244;254;28078;-71
2021/01/21 07:40:47;;;;;;;1.20;1.10;;;9.50;99.90;;;;;;468196;254;28077;-71
2021/01/21 07:42:48;;;;;;;1.23;1.13;;;9.60;99.90;;;;;;468235;253;28084;-71
2021/01/21 07:44:49;;;;;;;1.37;1.27;;;9.60;99.90;;;;;;468263;253;28060;-70
2021/01/21 07:46:50;;;;;;;1.67;1.57;;;9.70;99.90;;;;;;468352;253;28295;-70
2021/01/21 07:48:52;;;;;;;1.00;1.00;;;9.80;99.90;;;;;;468353;253;28054;-71
2021/01/21 07:50:53;;;;;;;3.27;1.27;;;9.80;99.90;;;;;;468256;253;28501;-72
2021/01/21 07:52:54;;;;;;;1.60;1.30;;;9.80;99.90;;;;;;468292;253;28419;-71
2021/01/21 07:54:56;;;;;;;2.33;1.20;;;9.70;99.90;;;;;;468112;253;28221;-71
2021/01/21 07:56:57;;;;;;;1.53;1.03;;;9.70;99.90;;;;;;468252;253;28336;-71
2021/01/21 07:58:58;;;;;;;1.30;1.30;;;9.80;99.90;;;;;;468168;253;28265;-71
2021/01/21 08:01:02;;;;;;;1.40;1.20;;;9.80;99.90;;;;;;468149;253;28420;-72
2021/01/21 08:03:00;;;;;;;2.60;1.20;;;9.80;99.90;;;;;;468053;254;28054;-71
2021/01/21 08:05:02;;;;;;;1.47;1.37;;;9.80;99.90;;;;;;468217;253;28039;-71
2021/01/21 08:07:03;;;;;;;1.23;1.13;;;9.80;99.90;;;;;;468245;253;27631;-71
2021/01/21 08:09:04;;;;;;;1.30;1.20;;;9.80;99.90;;;;;;468240;254;28079;-72
2021/01/21 08:11:05;;;;;;;2.20;1.10;;;9.80;99.90;;;;;;468182;253;28275;-71
2021/01/21 08:13:07;;;;;;;2.10;1.27;;;9.80;99.90;;;;;;468234;253;27783;-71
2021/01/21 08:15:08;;;;;;;1.33;1.20;;;9.80;99.90;;;;;;468249;253;28517;-72
2021/01/21 08:17:09;;;;;;;5.23;1.77;;;9.90;99.90;;;;;;468265;253;28035;-71
2021/01/21 08:19:11;;;;;;;1.80;1.60;;;9.90;99.90;;;;;;468318;253;28077;-71
2021/01/21 08:21:12;;;;;;;1.90;1.80;;;9.80;99.90;;;;;;468319;253;27994;-72
2021/01/21 08:23:15;;;;;;;1.53;1.37;;;9.70;99.90;;;;;;468350;253;28022;-71
2021/01/21 08:25:14;;;;;;;1.23;1.23;;;9.50;99.90;;;;;;468154;254;28023;-72
2021/01/21 08:27:15;;;;;;;2.10;1.43;;;9.50;99.90;;;;;;468310;253;28034;-71
2021/01/21 08:29:18;;;;;;;1.30;1.30;;;9.40;99.90;;;;;;468357;253;28291;-72
2021/01/21 08:31:18;;;;;;;2.10;1.40;;;9.30;99.90;;;;;;468321;254;29762;-70
2021/01/21 08:33:20;;;;;;;1.70;1.60;;;9.20;99.90;;;;;;468429;253;28562;-71
2021/01/21 08:35:20;;;;;;;1.20;1.10;;;9.20;99.90;;;;;;468403;253;28799;-72
2021/01/21 08:37:22;;;;;;;1.43;1.33;;;9.10;99.90;;;;;;468420;253;28567;-71
2021/01/21 08:39:23;;;;;;;2.17;1.67;;;9.00;99.90;;;;;;468396;253;28578;-71
2021/01/21 08:41:24;;;;;;;1.70;1.60;;;9.00;99.90;;;;;;468341;253;28069;-71
2021/01/21 08:43:25;;;;;;;1.60;1.47;;;8.90;99.90;;;;;;468318;253;28048;-71
2021/01/21 08:45:27;;;;;;;1.43;1.33;;;8.90;99.90;;;;;;468309;253;27916;-72
2021/01/21 08:47:28;;;;;;;1.50;1.40;;;9.00;99.90;;;;;;468286;253;27871;-71
2021/01/21 08:49:34;;;;;;;1.50;1.40;;;8.90;99.90;;;;;;468177;253;28032;-71
2021/01/21 08:51:34;;;;;;;2.07;1.50;;;8.90;99.90;;;;;;467756;254;28314;-71
2021/01/21 08:53:32;;;;;;;1.60;1.50;;;8.90;99.90;;;;;;467856;254;28178;-71
2021/01/21 08:55:33;;;;;;;2.33;1.40;;;8.90;99.90;;;;;;468207;253;28681;-71
2021/01/21 08:57:34;;;;;;;2.00;1.50;;;9.00;99.90;;;;;;468149;254;28053;-71
2021/01/21 08:59:35;;;;;;;1.97;1.87;;;8.90;99.90;;;;;;468243;253;28140;-71
2021/01/21 09:01:37;;;;;;;2.60;1.50;;;8.90;99.90;;;;;;468171;253;28064;-71
2021/01/21 09:03:51;;;;;;;1.67;1.57;;;8.90;99.90;;;;;;468186;253;27960;-71
2021/01/21 09:05:51;;;;;;;2.10;1.60;;;8.80;99.90;;;;;;468176;254;28507;-72
2021/01/21 09:07:53;;;;;;;1.83;1.70;;;8.90;99.90;;;;;;468214;253;27731;-72
2021/01/21 09:09:55;;;;;;;1.40;1.30;;;8.80;99.90;;;;;;468221;253;28082;-71
2021/01/21 09:11:55;;;;;;;1.40;1.30;;;8.80;99.90;;;;;;468177;254;27958;-71
2021/01/21 09:13:56;;;;;;;2.37;1.83;;;8.80;99.90;;;;;;468294;253;27906;-71
2021/01/21 09:15:58;;;;;;;2.50;1.33;;;8.80;99.90;;;;;;468246;253;28232;-71
2021/01/21 09:17:59;;;;;;;1.63;1.43;;;8.70;99.90;;;;;;468265;253;28056;-71
2021/01/21 09:20:00;;;;;;;1.47;1.37;;;8.80;99.90;;;;;;468241;253;28079;-71
2021/01/21 09:22:01;;;;;;;2.03;1.40;;;8.80;99.90;;;;;;468209;253;27962;-71
2021/01/21 09:24:03;;;;;;;1.67;1.57;;;8.80;99.90;;;;;;468384;253;28489;-71
2021/01/21 09:26:04;;;;;;;1.40;1.40;;;8.80;99.90;;;;;;468431;254;27929;-71
2021/01/21 09:28:07;;;;;;;2.07;1.30;;;8.90;99.90;;;;;;468422;253;28176;-72
2021/01/21 09:30:06;;;;;;;1.60;1.50;;;8.90;99.90;;;;;;468312;253;27660;-71
2021/01/21 09:32:08;;;;;;;1.40;1.30;;;8.80;99.90;;;;;;467628;253;28024;-71
2021/01/21 09:34:09;;;;;;;1.13;1.13;;;8.80;99.90;;;;;;468143;253;28113;-72
2021/01/21 09:36:10;;;;;;;1.33;1.10;;;8.70;99.90;;;;;;468245;253;28515;-73
2021/01/21 09:38:11;;;;;;;2.60;1.67;;;8.80;99.90;;;;;;468223;253;28593;-71
2021/01/21 09:40:13;;;;;;;1.97;1.50;;;8.80;99.90;;;;;;468163;253;28531;-71
2021/01/21 09:42:14;;;;;;;1.43;1.33;;;8.80;99.90;;;;;;468238;253;28485;-71
2021/01/21 09:44:15;;;;;;;3.00;1.20;;;8.80;99.90;;;;;;468252;253;28644;-72
2021/01/21 09:46:16;;;;;;;1.80;1.70;;;8.80;99.90;;;;;;468249;253;28038;-71
2021/01/21 09:48:18;;;;;;;1.50;1.30;;;8.80;99.90;;;;;;468268;253;28069;-71
2021/01/21 09:50:19;;;;;;;1.37;1.27;;;8.80;99.90;;;;;;468263;253;28091;-72
2021/01/21 09:52:20;;;;;;;1.70;1.60;;;8.90;99.90;;;;;;468391;253;28079;-71
2021/01/21 09:54:21;;;;;;;1.80;1.47;;;8.90;99.90;;;;;;468263;253;27954;-71
2021/01/21 09:56:23;;;;;;;2.27;1.63;;;8.80;99.90;;;;;;468289;253;28010;-71
2021/01/21 09:58:24;;;;;;;1.53;1.43;;;8.70;99.90;;;;;;468349;253;28166;-71
2021/01/21 10:00:25;;;;;;;1.87;1.63;;;8.70;99.90;;;;;;468350;253;28291;-74
2021/01/21 10:02:26;;;;;;;2.70;2.20;;;8.70;99.90;;;;;;468437;253;28088;-71
2021/01/21 10:04:28;;;;;;;1.63;1.53;;;8.60;99.90;;;;;;468414;253;28035;-72
2021/01/21 10:06:29;;;;;;;1.37;0.93;;;8.40;99.90;;;;;;468438;253;27760;-70
2021/01/21 10:08:30;;;;;;;1.10;1.10;;;8.00;99.90;;;;;;468418;253;27797;-71
2021/01/21 10:10:31;;;;;;;1.10;1.00;;;7.80;99.90;;;;;;468342;253;28427;-72
2021/01/21 10:12:33;;;;;;;0.90;0.90;;;7.70;99.90;;;;;;468339;253;28380;-71
2021/01/21 10:14:34;;;;;;;2.23;1.50;;;7.70;99.90;;;;;;468279;253;28631;-71
2021/01/21 10:16:35;;;;;;;1.80;1.40;;;7.70;99.90;;;;;;468270;253;28402;-71
2021/01/21 10:18:36;;;;;;;1.20;1.20;;;7.70;99.90;;;;;;468297;253;28477;-71
2021/01/21 10:20:38;;;;;;;2.60;1.10;;;7.60;99.90;;;;;;468250;253;28617;-72
2021/01/21 10:22:39;;;;;;;0.90;0.90;;;7.40;99.90;;;;;;468290;253;28585;-71
2021/01/21 10:24:40;;;;;;;2.87;0.90;;;7.40;99.90;;;;;;468269;253;27963;-71
2021/01/21 10:26:41;;;;;;;1.00;0.90;;;7.30;99.90;;;;;;468281;253;28052;-71
2021/01/21 10:28:43;;;;;;;1.07;0.97;;;7.30;99.90;;;;;;468260;250;28210;-71
2021/01/21 10:30:44;;;;;;;0.90;0.80;;;7.30;99.90;;;;;;468193;253;28078;-72
2021/01/21 10:32:45;;;;;;;0.80;0.80;;;7.30;99.90;;;;;;468242;253;28056;-70
2021/01/21 10:34:46;;;;;;;1.83;1.10;;;7.30;99.90;;;;;;468250;253;28171;-72
2021/01/21 10:36:48;;;;;;;2.83;2.70;;;7.40;99.90;;;;;;468248;253;28295;-73
2021/01/21 10:38:49;;;;;;;1.50;1.40;;;7.40;99.90;;;;;;468238;253;28032;-71
2021/01/21 10:40:50;;;;;;;2.10;2.00;;;7.50;99.90;;;;;;468178;253;27958;-71